Time;durP1;ratioP1;P1;durP2;ratioP2;P2;SDS_P1;SDS_P2;PMS_P1;PMS_P2;Temp;Humidity;BMP_temperature;BMP_pressure;BME280_temperature;BME280_humidity;BME280_pressure;Samples;Min_cycle;Max_cycle;Signal;HPM_P1;HPM_P2
2023/07/02 00:01:14;;;;;;;14.20;10.40;;;;;;;16.65;85.82;97624.56;4955200;28;20528;-66
2023/07/02 00:03:39;;;;;;;12.85;8.32;;;;;;;16.60;86.07;97627.81;4949752;28;20050;-64
2023/07/02 00:06:05;;;;;;;13.95;9.60;;;;;;;16.59;85.95;97626.16;4956380;28;20493;-67
2023/07/02 00:08:30;;;;;;;14.27;8.75;;;;;;;16.57;85.98;97632.78;4955644;28;20050;-67
2023/07/02 00:10:55;;;;;;;10.18;8.35;;;;;;;16.57;86.07;97627.38;4955801;28;20591;-65
2023/07/02 00:13:21;;;;;;;13.27;9.68;;;;;;;16.52;86.18;97652.19;4957183;28;20042;-66
2023/07/02 00:15:46;;;;;;;14.55;9.00;;;;;;;16.52;85.96;97630.66;4956024;28;20054;-66
2023/07/02 00:18:16;;;;;;;10.98;9.00;;;;;;;16.51;86.15;97629.00;4955974;28;20493;-68
2023/07/02 00:20:42;;;;;;;11.18;8.50;;;;;;;16.50;86.21;97626.50;4956883;28;20417;-68
2023/07/02 00:23:09;;;;;;;13.98;10.40;;;;;;;16.46;86.45;97636.84;4957500;28;20053;-67
2023/07/02 00:25:34;;;;;;;11.73;9.43;;;;;;;16.44;86.36;97619.22;4957203;28;20062;-67
2023/07/02 00:28:00;;;;;;;12.10;9.05;;;;;;;16.41;86.58;97630.38;4956344;28;20512;-63
2023/07/02 00:30:26;;;;;;;13.18;8.82;;;;;;;16.39;86.64;97630.56;4970046;28;20041;-69
2023/07/02 00:32:51;;;;;;;10.82;8.07;;;;;;;16.38;87.43;97638.81;4939666;28;20038;-67
2023/07/02 00:35:16;;;;;;;10.32;8.23;;;;;;;16.36;86.88;97628.28;4956720;28;20057;-68
2023/07/02 00:37:41;;;;;;;13.48;8.93;;;;;;;16.34;87.24;97628.47;4955085;28;20413;-65
2023/07/02 00:40:07;;;;;;;14.55;9.32;;;;;;;16.31;87.10;97633.41;4955542;28;20394;-69
2023/07/02 00:42:32;;;;;;;12.05;8.88;;;;;;;16.30;87.39;97635.25;4954724;28;20046;-69
2023/07/02 00:45:02;;;;;;;10.43;8.52;;;;;;;16.28;87.49;97644.53;4971706;28;20046;-68
2023/07/02 00:47:33;;;;;;;12.63;9.05;;;;;;;16.28;87.65;97648.06;4956013;28;20046;-68
2023/07/02 00:49:59;;;;;;;12.30;8.88;;;;;;;16.25;87.82;97651.13;4956082;28;20058;-67
2023/07/02 00:52:25;;;;;;;15.60;9.27;;;;;;;16.25;87.81;97651.13;4955231;28;20050;-65
2023/07/02 00:54:51;;;;;;;11.25;8.80;;;;;;;16.22;88.05;97646.16;4956159;28;20042;-67
2023/07/02 00:57:16;;;;;;;11.38;8.75;;;;;;;16.23;87.98;97647.00;4955371;28;20046;-69
2023/07/02 00:59:41;;;;;;;10.88;8.38;;;;;;;16.21;88.17;97657.09;4956461;28;20054;-66
2023/07/02 01:02:07;;;;;;;12.85;8.80;;;;;;;16.18;88.13;97650.25;4955139;28;20042;-68
2023/07/02 01:04:32;;;;;;;14.13;9.00;;;;;;;16.16;88.48;97673.78;4956164;28;20058;-65
2023/07/02 01:06:57;;;;;;;12.82;8.90;;;;;;;16.13;88.36;97673.38;4956384;28;20417;-65
2023/07/02 01:09:27;;;;;;;10.15;8.75;;;;;;;16.13;88.55;97673.38;4956445;28;20065;-65
2023/07/02 01:11:55;;;;;;;11.27;8.15;;;;;;;16.13;88.46;97657.25;4956180;28;20497;-68
2023/07/02 01:14:38;;;;;;;12.60;8.30;;;;;;;16.16;88.57;97663.03;4955418;28;20072;-69
2023/07/02 01:17:06;;;;;;;11.18;7.93;;;;;;;16.10;88.54;97663.00;4955564;28;20042;-72
2023/07/02 01:19:51;;;;;;;12.32;8.63;;;;;;;16.15;88.58;97660.53;4954190;28;20058;-69
2023/07/02 01:22:18;;;;;;;10.52;8.50;;;;;;;16.12;88.72;97667.16;4971832;28;20046;-69
2023/07/02 01:24:44;;;;;;;12.30;9.07;;;;;;;16.11;88.77;97673.56;4954820;28;20065;-69
2023/07/02 01:27:10;;;;;;;12.32;8.35;;;;;;;16.10;88.72;97663.81;4956524;28;20050;-69
2023/07/02 01:29:36;;;;;;;10.50;8.32;;;;;;;16.11;88.85;97662.81;4956414;28;20409;-68
2023/07/02 01:32:02;;;;;;;12.75;9.15;;;;;;;16.10;88.66;97663.81;4954723;28;20830;-68
2023/07/02 01:34:27;;;;;;;11.52;7.88;;;;;;;16.13;88.42;97689.50;4956207;28;20045;-68
2023/07/02 01:36:52;;;;;;;12.68;8.48;;;;;;;16.13;88.88;97674.22;4954882;28;20042;-69
2023/07/02 01:39:17;;;;;;;11.30;7.70;;;;;;;16.13;88.79;97681.44;4956187;28;20046;-69
2023/07/02 01:41:51;;;;;;;11.85;8.50;;;;;;;16.17;88.86;97680.84;4938312;28;20054;-69
2023/07/02 01:44:18;;;;;;;11.60;8.57;;;;;;;16.15;88.52;97676.69;4955969;28;20045;-68
2023/07/02 01:46:48;;;;;;;11.02;7.53;;;;;;;16.14;88.71;97670.47;4953986;28;20473;-68
2023/07/02 01:49:20;;;;;;;13.30;8.02;;;;;;;16.16;88.52;97670.28;4956406;28;20857;-68
2023/07/02 01:51:49;;;;;;;9.80;8.25;;;;;;;16.18;88.86;97681.69;4956108;28;20042;-68
2023/07/02 01:54:15;;;;;;;13.63;8.13;;;;;;;16.18;88.63;97665.53;4954418;28;20046;-68
2023/07/02 01:56:41;;;;;;;11.40;9.20;;;;;;;16.20;88.55;97675.09;4956220;28;20053;-69
2023/07/02 01:59:06;;;;;;;12.30;8.48;;;;;;;16.22;88.62;97673.03;4954656;28;20050;-68
2023/07/02 02:01:32;;;;;;;12.73;7.88;;;;;;;16.25;88.59;97677.22;4938492;28;20529;-68
2023/07/02 02:03:57;;;;;;;10.20;8.30;;;;;;;16.25;88.43;97683.38;4954959;28;20541;-69
2023/07/02 02:06:23;;;;;;;11.73;8.75;;;;;;;16.26;88.26;97674.31;4938597;28;20061;-67
2023/07/02 02:08:48;;;;;;;14.50;8.20;;;;;;;16.24;88.08;97676.38;4955873;28;20417;-65
2023/07/02 02:11:13;;;;;;;10.15;8.15;;;;;;;16.23;88.32;97674.72;4959536;28;20042;-67
2023/07/02 02:13:39;;;;;;;10.98;8.70;;;;;;;16.23;88.12;97674.72;4954735;28;20050;-67
2023/07/02 02:16:05;;;;;;;12.82;9.13;;;;;;;16.26;88.05;97674.31;4955170;28;20053;-67
2023/07/02 02:18:30;;;;;;;11.95;8.40;;;;;;;16.29;87.94;97679.31;4970612;28;20061;-68
2023/07/02 02:21:15;;;;;;;12.48;9.07;;;;;;;16.32;87.95;97673.53;4941202;28;20413;-67
2023/07/02 02:23:41;;;;;;;10.45;7.95;;;;;;;16.34;87.83;97674.19;4955050;28;20453;-67
2023/07/02 02:26:06;;;;;;;11.85;9.20;;;;;;;16.34;87.96;97670.66;4952772;28;20046;-66
2023/07/02 02:28:34;;;;;;;10.88;8.50;;;;;;;16.34;87.87;97666.13;4955286;28;20053;-67
2023/07/02 02:30:59;;;;;;;10.07;8.15;;;;;;;16.37;87.80;97666.72;4938224;28;20054;-67
2023/07/02 02:33:24;;;;;;;10.63;8.57;;;;;;;16.38;87.88;97666.53;4970445;28;20065;-68
2023/07/02 02:35:49;;;;;;;10.02;8.07;;;;;;;16.41;87.81;97654.56;4953654;28;20401;-67
2023/07/02 02:38:15;;;;;;;9.88;8.07;;;;;;;16.45;87.87;97683.59;4970552;28;20042;-68
2023/07/02 02:40:40;;;;;;;10.25;7.95;;;;;;;16.51;87.79;97679.25;4954432;28;20049;-67
2023/07/02 02:43:08;;;;;;;9.65;7.90;;;;;;;16.62;87.71;97681.47;4953825;28;20047;-67
2023/07/02 02:45:34;;;;;;;9.77;7.28;;;;;;;16.71;87.54;97688.34;4938259;28;20053;-66
2023/07/02 02:47:59;;;;;;;10.75;7.60;;;;;;;16.83;87.27;97678.72;4954216;28;20054;-65
2023/07/02 02:50:24;;;;;;;8.65;7.70;;;;;;;16.93;86.83;97687.25;4953097;28;20042;-65
2023/07/02 02:52:50;;;;;;;10.60;7.90;;;;;;;17.00;86.72;97681.94;4953663;28;20478;-64
2023/07/02 02:55:17;;;;;;;15.20;7.05;;;;;;;17.07;86.24;97715.09;4953633;28;20042;-67
2023/07/02 02:57:42;;;;;;;14.35;7.85;;;;;;;17.15;86.01;97690.72;4952434;28;20054;-66
2023/07/02 03:00:09;;;;;;;10.85;7.47;;;;;;;17.25;85.71;97695.75;4955179;28;20105;-66
2023/07/02 03:02:35;;;;;;;12.52;8.02;;;;;;;17.38;85.22;97685.84;4970126;28;20046;-68
2023/07/02 03:05:02;;;;;;;15.02;7.47;;;;;;;17.51;85.15;97682.38;4970334;28;20420;-67
2023/07/02 03:07:30;;;;;;;9.60;7.10;;;;;;;17.62;84.53;97699.84;4953868;28;20046;-69
2023/07/02 03:09:55;;;;;;;8.00;6.63;;;;;;;17.71;84.04;97690.59;4956458;28;20494;-68
2023/07/02 03:12:22;;;;;;;9.63;7.00;;;;;;;17.80;83.35;97699.31;4973753;28;20049;-68
2023/07/02 03:14:51;;;;;;;10.63;6.88;;;;;;;17.84;83.00;97705.94;4973590;28;20497;-67
2023/07/02 03:17:16;;;;;;;11.57;6.82;;;;;;;17.89;82.42;97698.94;4957300;28;20541;-66
2023/07/02 03:19:41;;;;;;;7.38;6.15;;;;;;;17.93;82.27;97707.47;4958508;28;20516;-67
2023/07/02 03:22:07;;;;;;;8.20;6.72;;;;;;;17.96;82.00;97705.16;4958320;28;20042;-66
2023/07/02 03:24:32;;;;;;;8.60;7.03;;;;;;;18.00;81.68;97714.53;4972608;28;20046;-68
2023/07/02 03:26:57;;;;;;;9.02;7.00;;;;;;;18.02;81.29;97709.75;4957893;28;20054;-75
2023/07/02 03:29:22;;;;;;;7.32;6.28;;;;;;;18.00;81.02;97713.69;4957288;28;20038;-71
2023/07/02 03:31:47;;;;;;;8.90;6.30;;;;;;;17.95;80.61;97711.59;4958301;28;20053;-67
2023/07/02 03:34:13;;;;;;;10.18;7.10;;;;;;;17.92;80.15;97716.56;4958424;28;20050;-69
2023/07/02 03:36:38;;;;;;;17.15;7.22;;;;;;;17.87;80.34;97705.56;4972793;28;20034;-68
2023/07/02 03:39:04;;;;;;;10.18;7.18;;;;;;;17.84;80.44;97711.34;4972938;28;20494;-67
2023/07/02 03:41:29;;;;;;;11.32;7.13;;;;;;;17.85;80.02;97713.84;4957471;28;20050;-67
2023/07/02 03:43:54;;;;;;;9.40;6.55;;;;;;;17.89;79.86;97708.88;4957628;28;20413;-72
2023/07/02 03:46:20;;;;;;;12.20;6.95;;;;;;;17.96;79.71;97712.41;4940128;28;20050;-72
2023/07/02 03:48:45;;;;;;;11.00;6.90;;;;;;;18.08;79.74;97718.88;4937073;28;20050;-75
2023/07/02 03:51:14;;;;;;;8.77;6.40;;;;;;;18.20;79.24;97743.38;4949487;28;20496;-76
2023/07/02 03:53:43;;;;;;;9.15;7.18;;;;;;;18.38;79.03;97735.56;4972835;28;20421;-74
2023/07/02 03:56:09;;;;;;;8.23;6.25;;;;;;;18.49;78.52;97753.84;4956534;28;20041;-75
2023/07/02 03:58:34;;;;;;;9.13;6.38;;;;;;;18.67;78.05;97728.97;4956413;28;20050;-76
2023/07/02 04:00:59;;;;;;;8.80;6.22;;;;;;;18.81;77.67;97728.75;4958131;28;20448;-76
2023/07/02 04:03:25;;;;;;;7.43;6.00;;;;;;;18.99;77.17;97721.88;4957055;28;20057;-74
2023/07/02 04:05:50;;;;;;;8.25;6.40;;;;;;;19.13;76.63;97721.66;4940837;28;20042;-76
2023/07/02 04:08:15;;;;;;;10.18;6.28;;;;;;;19.32;75.78;97736.16;4958452;28;20050;-77
2023/07/02 04:10:41;;;;;;;8.20;5.95;;;;;;;19.50;75.27;97724.72;4957273;28;20038;-76
2023/07/02 04:13:06;;;;;;;9.85;6.65;;;;;;;19.64;74.57;97729.00;4958345;28;20042;-76
2023/07/02 04:15:32;;;;;;;9.20;6.75;;;;;;;19.76;74.28;97726.47;4958171;28;20042;-76
2023/07/02 04:17:57;;;;;;;8.57;6.68;;;;;;;19.89;73.64;97734.53;4958093;28;20046;-75
2023/07/02 04:20:22;;;;;;;8.68;6.75;;;;;;;19.96;72.95;97756.16;4972449;28;20382;-75
2023/07/02 04:22:47;;;;;;;9.00;6.70;;;;;;;20.06;72.46;97735.72;4957057;28;20054;-75
2023/07/02 04:25:17;;;;;;;8.85;6.00;;;;;;;20.25;72.39;97739.34;4955847;28;20049;-75
2023/07/02 04:27:43;;;;;;;11.40;6.93;;;;;;;20.43;71.09;97719.72;4957371;28;20520;-75
2023/07/02 04:30:10;;;;;;;14.50;6.32;;;;;;;20.57;70.66;97742.91;4957234;28;20046;-75
2023/07/02 04:32:42;;;;;;;9.50;6.20;;;;;;;20.76;69.85;97741.13;4957274;28;20049;-76
2023/07/02 04:35:11;;;;;;;11.05;6.18;;;;;;;20.92;68.98;97740.53;4957314;28;20494;-74
2023/07/02 04:37:36;;;;;;;8.43;6.25;;;;;;;21.03;68.60;97743.38;4957358;28;20065;-76
2023/07/02 04:40:06;;;;;;;7.78;5.90;;;;;;;21.17;68.82;97737.81;4958074;28;20034;-69
2023/07/02 04:42:37;;;;;;;8.65;6.32;;;;;;;21.31;68.00;97739.41;4956718;28;20053;-68
2023/07/02 04:45:06;;;;;;;8.52;6.35;;;;;;;21.44;67.48;97746.56;4956536;28;20046;-68
2023/07/02 04:47:31;;;;;;;11.38;5.82;;;;;;;21.55;66.59;97748.53;4956647;28;20501;-68
2023/07/02 04:49:57;;;;;;;9.38;6.43;;;;;;;21.60;66.61;97746.78;4955529;28;20449;-69
2023/07/02 04:52:22;;;;;;;12.98;6.13;;;;;;;21.67;66.24;97752.94;4956267;28;20043;-69
2023/07/02 04:54:47;;;;;;;6.57;5.60;;;;;;;21.73;65.58;97756.66;4939159;28;20054;-68
2023/07/02 04:57:15;;;;;;;10.57;6.20;;;;;;;21.78;65.39;97762.25;4956338;28;20042;-67
2023/07/02 04:59:44;;;;;;;8.48;5.95;;;;;;;21.77;64.98;97766.00;4956568;28;20045;-69
2023/07/02 05:02:09;;;;;;;8.10;5.97;;;;;;;21.77;64.87;97719.91;4956561;28;20501;-68
2023/07/02 05:04:37;;;;;;;9.18;6.82;;;;;;;21.81;64.81;97756.34;4956215;28;20046;-68
2023/07/02 05:07:02;;;;;;;8.50;6.22;;;;;;;21.92;64.81;97742.00;4955201;28;20042;-68
2023/07/02 05:09:28;;;;;;;7.82;6.00;;;;;;;22.21;64.76;97745.03;4954428;28;20054;-69
2023/07/02 05:11:53;;;;;;;9.93;6.30;;;;;;;22.56;63.91;97770.41;4955041;28;20039;-69
2023/07/02 05:14:18;;;;;;;8.02;6.20;;;;;;;22.90;62.58;97738.16;4955148;28;20046;-77
2023/07/02 05:16:43;;;;;;;9.15;5.93;;;;;;;23.23;60.99;97743.03;4956457;28;20064;-73
2023/07/02 05:19:09;;;;;;;12.02;6.30;;;;;;;23.51;60.34;97741.25;4956500;28;20050;-76
2023/07/02 05:21:34;;;;;;;6.20;5.30;;;;;;;23.71;58.91;97737.31;4956374;28;20045;-74
2023/07/02 05:23:59;;;;;;;8.95;6.47;;;;;;;23.96;58.59;97754.16;4938555;28;20058;-75
2023/07/02 05:26:26;;;;;;;8.20;6.30;;;;;;;24.17;57.54;97761.69;4954766;28;20061;-75
2023/07/02 05:28:51;;;;;;;9.52;5.85;;;;;;;24.45;57.38;97733.66;4956218;28;20077;-75
2023/07/02 05:31:16;;;;;;;7.53;5.95;;;;;;;24.72;56.69;97735.78;4954767;28;20054;-76
2023/07/02 05:33:41;;;;;;;14.77;6.47;;;;;;;25.02;56.26;97735.47;4955565;28;20069;-74
2023/07/02 05:36:06;;;;;;;10.98;6.45;;;;;;;25.28;55.63;97746.50;4971300;28;20069;-75
2023/07/02 05:38:32;;;;;;;6.72;5.95;;;;;;;25.63;54.62;97742.66;4956056;28;20053;-74
2023/07/02 05:40:57;;;;;;;10.32;6.07;;;;;;;26.06;53.62;97741.88;4956863;28;20042;-74
2023/07/02 05:43:22;;;;;;;7.43;6.40;;;;;;;26.18;52.43;97739.84;4954235;28;20058;-76
2023/07/02 05:45:47;;;;;;;8.98;5.70;;;;;;;26.46;51.76;97735.25;4955880;28;20065;-75
2023/07/02 05:48:13;;;;;;;7.30;5.93;;;;;;;26.53;51.36;97742.13;4956192;28;20046;-75
2023/07/02 05:50:38;;;;;;;6.95;5.88;;;;;;;26.83;51.19;97738.06;4956077;28;20061;-77
2023/07/02 05:53:03;;;;;;;9.30;5.65;;;;;;;27.24;50.10;97733.75;4954513;28;20050;-76
2023/07/02 05:55:28;;;;;;;7.50;5.82;;;;;;;27.62;48.83;97749.91;4956326;28;20062;-75
2023/07/02 05:57:54;;;;;;;8.07;5.93;;;;;;;28.08;47.90;97747.41;4955930;28;20413;-75
2023/07/02 06:00:19;;;;;;;8.32;6.03;;;;;;;28.58;46.84;97743.19;4955869;28;20046;-75
2023/07/02 06:02:46;;;;;;;8.18;6.20;;;;;;;28.93;45.73;97715.81;4955978;28;20065;-75
2023/07/02 06:05:11;;;;;;;7.80;5.90;;;;;;;29.39;45.25;97744.09;4955664;28;20125;-75
2023/07/02 06:07:37;;;;;;;7.00;5.85;;;;;;;29.74;43.52;97756.09;4955919;28;20049;-75
2023/07/02 06:10:02;;;;;;;7.68;5.63;;;;;;;30.33;42.72;97740.50;4955799;28;20046;-77
2023/07/02 06:12:30;;;;;;;8.60;6.32;;;;;;;31.00;41.03;97738.16;4954468;28;20057;-76
2023/07/02 06:14:55;;;;;;;10.10;5.80;;;;;;;31.72;40.25;97679.38;4956074;28;20379;-75
2023/07/02 06:17:22;;;;;;;9.18;6.10;;;;;;;31.99;38.78;97688.97;4956119;28;20046;-76
2023/07/02 06:19:48;;;;;;;12.63;5.80;;;;;;;32.42;38.40;97687.03;4954906;28;20046;-77
2023/07/02 06:22:13;;;;;;;6.20;5.45;;;;;;;32.85;37.39;97687.75;4955675;28;20502;-75
2023/07/02 06:24:38;;;;;;;6.32;5.60;;;;;;;33.24;36.68;97686.56;4954516;28;20034;-74
2023/07/02 06:27:03;;;;;;;8.20;6.25;;;;;;;32.53;37.41;97735.41;4954535;28;20058;-76
2023/07/02 06:29:28;;;;;;;9.52;6.43;;;;;;;31.56;38.96;97749.50;4955982;28;20083;-76
2023/07/02 06:31:54;;;;;;;10.95;5.70;;;;;;;30.51;40.49;97750.00;4955855;28;20046;-76
2023/07/02 06:34:19;;;;;;;8.52;5.65;;;;;;;29.95;40.99;97688.97;4955404;28;20043;-77
2023/07/02 06:36:44;;;;;;;7.78;6.10;;;;;;;30.25;41.57;97688.03;4955830;28;20038;-76
2023/07/02 06:39:09;;;;;;;13.40;5.50;;;;;;;30.08;40.58;97693.06;4955782;28;20049;-76
2023/07/02 06:41:36;;;;;;;8.98;5.68;;;;;;;29.50;40.84;97679.81;4937789;28;20049;-76
2023/07/02 06:44:02;;;;;;;7.72;6.13;;;;;;;29.73;41.54;97741.53;4937893;28;20054;-75
2023/07/02 06:46:28;;;;;;;8.93;6.03;;;;;;;30.12;39.97;97741.72;4941812;28;20042;-75
2023/07/02 06:48:55;;;;;;;7.65;5.78;;;;;;;30.08;39.56;97693.91;4959524;28;20134;-74
2023/07/02 06:51:21;;;;;;;7.10;5.05;;;;;;;29.68;40.64;97688.56;4958307;28;20046;-77
2023/07/02 06:53:46;;;;;;;6.88;5.57;;;;;;;28.95;41.46;97690.84;4942289;28;20492;-76
2023/07/02 06:56:11;;;;;;;7.00;5.68;;;;;;;28.48;42.22;97754.94;4960181;28;20038;-77
2023/07/02 06:58:36;;;;;;;12.60;5.43;;;;;;;28.44;42.89;97751.91;4958598;28;20053;-76
2023/07/02 07:01:02;;;;;;;8.68;5.95;;;;;;;28.48;42.97;97727.53;4959389;28;20387;-77
2023/07/02 07:03:27;;;;;;;8.40;5.80;;;;;;;28.37;42.74;97751.34;4959066;28;20042;-77
2023/07/02 07:05:53;;;;;;;8.07;5.82;;;;;;;27.92;42.99;97753.91;4974637;28;20125;-76
2023/07/02 07:08:18;;;;;;;8.88;5.68;;;;;;;27.34;44.18;97758.44;4958861;28;20386;-76
2023/07/02 07:10:45;;;;;;;9.35;6.45;;;;;;;26.71;44.83;97760.09;4959068;28;20038;-75
2023/07/02 07:13:10;;;;;;;9.18;5.63;;;;;;;26.32;45.91;97759.41;4958780;28;20045;-76
2023/07/02 07:15:35;;;;;;;8.38;5.35;;;;;;;25.96;46.30;97763.59;4959322;28;20045;-76
2023/07/02 07:18:01;;;;;;;8.55;5.20;;;;;;;25.66;46.74;97770.28;4959000;28;20050;-75
2023/07/02 07:20:27;;;;;;;10.05;5.95;;;;;;;26.72;46.47;97761.75;4957613;28;20058;-75
2023/07/02 07:22:52;;;;;;;9.73;5.60;;;;;;;28.08;44.40;97763.84;4958563;28;20406;-75
2023/07/02 07:25:17;;;;;;;14.13;5.90;;;;;;;28.41;43.10;97779.88;4958271;28;20042;-76
2023/07/02 07:27:42;;;;;;;9.55;5.57;;;;;;;28.31;43.58;97763.41;4958616;28;20043;-78
2023/07/02 07:30:08;;;;;;;5.88;4.88;;;;;;;28.37;42.81;97788.91;4956489;28;20054;-73
2023/07/02 07:32:33;;;;;;;8.52;5.85;;;;;;;28.21;43.12;97762.56;4958448;28;20038;-75
2023/07/02 07:34:58;;;;;;;13.38;6.38;;;;;;;28.13;42.91;97783.03;4958472;28;20046;-75
2023/07/02 07:37:25;;;;;;;8.25;5.63;;;;;;;28.25;42.67;97759.00;4958516;28;20053;-76
2023/07/02 07:39:50;;;;;;;9.57;5.18;;;;;;;29.81;40.82;97709.91;4973488;28;20038;-75
2023/07/02 07:42:16;;;;;;;7.38;5.40;;;;;;;31.85;37.32;97699.88;4958039;28;20130;-75
2023/07/02 07:44:42;;;;;;;8.82;5.93;;;;;;;34.03;33.63;97704.66;4958307;28;20382;-74
2023/07/02 07:47:07;;;;;;;7.72;5.60;;;;;;;36.14;31.25;97704.41;4956813;28;20061;-77
2023/07/02 07:49:32;;;;;;;6.93;6.22;;;;;;;37.89;28.51;97711.19;4958138;28;20042;-74
2023/07/02 07:51:57;;;;;;;9.55;5.68;;;;;;;38.52;28.07;97698.22;4956876;28;20057;-75
2023/07/02 07:54:24;;;;;;;7.70;6.30;;;;;;;39.48;26.82;97704.63;4956902;28;20482;-75
2023/07/02 07:56:49;;;;;;;9.18;6.65;;;;;;;39.25;26.73;97701.41;4955655;28;20050;-75
2023/07/02 07:59:15;;;;;;;10.98;6.50;;;;;;;37.86;27.34;97708.25;4957934;28;20555;-75
2023/07/02 08:01:40;;;;;;;6.65;5.93;;;;;;;35.67;29.55;97690.19;4955875;28;20515;-74
2023/07/02 08:04:05;;;;;;;9.18;6.07;;;;;;;33.95;31.94;97702.63;4958057;28;20054;-73
2023/07/02 08:06:31;;;;;;;8.82;6.05;;;;;;;33.32;33.29;97700.50;4956076;28;20058;-73
2023/07/02 08:08:56;;;;;;;8.65;6.22;;;;;;;33.03;33.68;97703.47;4957559;28;20050;-75
2023/07/02 08:11:21;;;;;;;7.50;5.95;;;;;;;33.28;33.15;97706.94;4957606;28;20050;-74
2023/07/02 08:13:47;;;;;;;6.93;5.63;;;;;;;32.83;33.56;97708.53;4956398;28;20053;-68
2023/07/02 08:16:13;;;;;;;12.15;6.63;;;;;;;32.00;34.69;97749.31;4957496;28;20386;-69
2023/07/02 08:18:38;;;;;;;7.60;6.15;;;;;;;31.35;35.73;97756.34;4957595;28;20057;-69
2023/07/02 08:21:06;;;;;;;9.55;5.90;;;;;;;31.60;35.88;97749.75;4956402;28;20053;-70
2023/07/02 08:23:31;;;;;;;7.10;6.05;;;;;;;31.61;35.21;97754.13;4956235;28;20050;-69
2023/07/02 08:25:56;;;;;;;9.75;5.70;;;;;;;31.61;34.98;97749.44;4957161;28;20069;-69
2023/07/02 08:28:22;;;;;;;9.55;5.80;;;;;;;31.59;34.96;97750.88;4938091;28;20046;-70
2023/07/02 08:30:47;;;;;;;8.88;6.60;;;;;;;31.36;35.48;97745.03;4937810;28;20505;-70
2023/07/02 08:33:15;;;;;;;7.78;5.68;;;;;;;31.02;35.61;97752.47;4953089;28;20039;-68
2023/07/02 08:35:40;;;;;;;11.15;6.18;;;;;;;30.76;36.23;97759.25;4952956;28;20494;-68
2023/07/02 08:38:05;;;;;;;7.32;5.97;;;;;;;30.88;36.34;97760.53;4937851;28;20066;-69
2023/07/02 08:40:30;;;;;;;8.57;6.20;;;;;;;31.10;35.56;97759.31;4936558;28;20413;-69
2023/07/02 08:42:56;;;;;;;9.65;5.80;;;;;;;31.07;34.83;97757.91;4938003;28;20046;-71
2023/07/02 08:45:25;;;;;;;7.68;5.38;;;;;;;31.81;33.78;97769.69;4952853;28;20055;-70
2023/07/02 08:47:50;;;;;;;6.82;5.45;;;;;;;33.83;31.58;97707.88;4952903;28;20877;-69
2023/07/02 08:50:16;;;;;;;7.68;5.68;;;;;;;35.22;29.69;97705.25;4957969;28;20061;-70
2023/07/02 08:52:45;;;;;;;8.05;5.72;;;;;;;36.43;28.26;97714.13;4975035;28;20034;-71
2023/07/02 08:55:10;;;;;;;6.72;5.68;;;;;;;37.36;27.70;97704.16;4976434;28;20065;-71
2023/07/02 08:57:36;;;;;;;6.70;6.00;;;;;;;36.97;27.31;97710.75;4974862;28;20402;-68
2023/07/02 09:00:08;;;;;;;9.90;6.32;;;;;;;35.72;28.21;97768.81;4976051;28;20046;-71
2023/07/02 09:02:33;;;;;;;10.20;6.35;;;;;;;34.42;29.76;97709.66;4958644;28;20049;-69
2023/07/02 09:05:00;;;;;;;7.53;5.97;;;;;;;33.02;31.02;97783.84;4976011;28;20061;-70
2023/07/02 09:07:26;;;;;;;7.80;5.25;;;;;;;33.09;31.75;97740.09;4935490;28;20472;-70
2023/07/02 09:09:51;;;;;;;8.10;5.93;;;;;;;34.27;30.84;97759.78;4952302;28;20054;-68
2023/07/02 09:12:31;;;;;;;10.02;6.00;;;;;;;36.96;28.56;97722.19;4937100;28;20042;-69
2023/07/02 09:14:57;;;;;;;16.17;6.70;;;;;;;39.38;25.26;97713.41;4919187;28;20501;-69
2023/07/02 09:17:27;;;;;;;8.00;7.15;;;;;;;40.20;23.83;97715.03;4952196;28;20038;-69
2023/07/02 09:19:52;;;;;;;7.65;6.40;;;;;;;39.20;24.67;97707.19;4942912;28;20405;-69
2023/07/02 09:22:17;;;;;;;7.45;6.63;;;;;;;38.27;26.08;97719.50;4954893;28;20046;-69
2023/07/02 09:24:53;;;;;;;9.45;6.60;;;;;;;37.42;27.25;97710.34;4956151;28;20046;-69
2023/07/02 09:27:18;;;;;;;8.90;6.53;;;;;;;35.28;28.97;97713.16;4956291;28;20046;-68
2023/07/02 09:29:43;;;;;;;9.65;6.55;;;;;;;33.81;30.53;97719.22;4956066;28;20049;-69
2023/07/02 09:32:08;;;;;;;12.00;7.28;;;;;;;32.51;30.99;97729.34;4956005;28;20053;-74
2023/07/02 09:34:35;;;;;;;8.15;6.50;;;;;;;31.54;33.35;97760.00;4954850;28;20524;-75
2023/07/02 09:37:03;;;;;;;10.82;5.78;;;;;;;30.12;33.06;97765.63;4955999;28;20050;-74
2023/07/02 09:39:33;;;;;;;9.10;5.95;;;;;;;28.66;34.63;97770.09;4938728;28;20412;-74
2023/07/02 09:42:01;;;;;;;9.02;5.75;;;;;;;28.47;36.73;97783.44;4956008;28;20053;-76
2023/07/02 09:44:30;;;;;;;10.02;5.90;;;;;;;28.64;37.73;97766.78;4955916;28;20049;-74
2023/07/02 09:47:02;;;;;;;11.13;6.50;;;;;;;28.86;38.40;97764.66;4956079;28;20061;-78
2023/07/02 09:49:32;;;;;;;6.72;5.45;;;;;;;29.19;36.91;97777.00;4956287;28;20056;-74
2023/07/02 09:52:00;;;;;;;12.68;6.03;;;;;;;30.29;36.35;97728.41;4938038;28;20081;-74
2023/07/02 09:54:25;;;;;;;10.95;6.00;;;;;;;31.52;33.26;97747.63;4955956;28;20045;-73
2023/07/02 09:56:50;;;;;;;12.02;6.13;;;;;;;32.25;32.13;97711.53;4955916;28;20050;-73
2023/07/02 09:59:16;;;;;;;7.88;5.80;;;;;;;31.45;32.46;97752.66;4954461;28;20050;-73
2023/07/02 10:01:41;;;;;;;6.47;5.60;;;;;;;29.60;34.67;97764.91;4971288;28;20079;-76
2023/07/02 10:04:14;;;;;;;7.25;6.05;;;;;;;29.30;36.30;97753.94;4955892;28;20038;-73
2023/07/02 10:06:53;;;;;;;11.13;6.57;;;;;;;30.53;34.97;97761.59;4970977;28;20493;-73
2023/07/02 10:09:20;;;;;;;8.65;6.18;;;;;;;32.11;33.64;97715.00;4955807;28;20501;-72
2023/07/02 10:11:45;;;;;;;10.32;7.28;;;;;;;32.96;32.88;97705.78;4953974;28;20062;-74
2023/07/02 10:14:11;;;;;;;8.05;6.60;;;;;;;32.62;33.01;97711.53;4970822;28;20034;-75
2023/07/02 10:16:53;;;;;;;11.23;6.00;;;;;;;32.21;33.19;97707.72;4955563;28;20046;-74
2023/07/02 10:19:19;;;;;;;11.40;6.15;;;;;;;30.66;34.58;97711.44;4957906;28;20042;-75
2023/07/02 10:21:45;;;;;;;11.50;6.45;;;;;;;29.19;37.67;97757.81;4966715;28;20057;-74
2023/07/02 10:24:15;;;;;;;10.63;6.57;;;;;;;27.85;39.43;97770.59;4973124;28;20058;-74
2023/07/02 10:26:53;;;;;;;6.85;5.65;;;;;;;26.90;40.77;97788.72;4958950;28;20058;-74
2023/07/02 10:29:20;;;;;;;9.88;5.90;;;;;;;25.95;43.20;97767.41;4974294;28;20049;-74
2023/07/02 10:31:50;;;;;;;9.05;5.88;;;;;;;25.59;44.60;97777.81;4974592;28;20046;-74
2023/07/02 10:34:15;;;;;;;10.88;6.68;;;;;;;25.32;44.20;97779.56;4959136;28;20057;-74
2023/07/02 10:36:41;;;;;;;8.50;5.75;;;;;;;25.18;44.42;97775.53;4959017;28;20825;-74
2023/07/02 10:39:06;;;;;;;8.65;5.82;;;;;;;25.13;44.59;97780.91;4957315;28;20077;-74
2023/07/02 10:41:31;;;;;;;8.13;5.18;;;;;;;25.10;45.01;97797.75;4957355;28;20039;-75
2023/07/02 10:44:10;;;;;;;9.38;5.50;;;;;;;25.29;44.56;97775.44;4957148;28;20062;-69
2023/07/02 10:46:46;;;;;;;6.50;5.50;;;;;;;25.48;44.15;97772.47;4958517;28;20045;-69
2023/07/02 10:49:11;;;;;;;10.23;6.28;;;;;;;25.57;43.89;97779.97;4966780;28;20046;-69
2023/07/02 10:51:37;;;;;;;7.55;4.82;;;;;;;25.77;42.96;97774.00;4969478;28;20541;-69
2023/07/02 10:54:04;;;;;;;10.05;5.90;;;;;;;25.91;42.37;97774.44;4958442;28;20042;-69
2023/07/02 10:56:30;;;;;;;9.43;5.63;;;;;;;26.09;42.82;97778.75;4958640;28;20042;-68
2023/07/02 10:58:55;;;;;;;7.20;5.15;;;;;;;26.18;41.47;97777.25;4970630;28;20046;-69
2023/07/02 11:01:25;;;;;;;6.72;5.30;;;;;;;26.28;41.63;97799.25;4958840;28;20050;-69
2023/07/02 11:04:03;;;;;;;9.32;5.60;;;;;;;26.42;40.62;97789.56;4958812;28;20046;-68
2023/07/02 11:06:30;;;;;;;7.75;4.70;;;;;;;26.45;40.70;97793.69;4958873;28;20042;-68
2023/07/02 11:08:57;;;;;;;7.50;4.85;;;;;;;26.51;40.28;97792.69;4956759;28;20054;-69
2023/07/02 11:11:23;;;;;;;6.75;4.60;;;;;;;26.52;40.04;97786.16;4958559;28;20042;-71
2023/07/02 11:13:50;;;;;;;6.93;5.43;;;;;;;26.48;39.15;97788.56;4973730;28;20046;-71
2023/07/02 11:16:41;;;;;;;8.63;5.15;;;;;;;26.64;38.71;97798.56;4958473;28;20683;-68
2023/07/02 11:19:08;;;;;;;7.03;5.20;;;;;;;26.45;39.06;97789.06;4955108;28;20050;-69
2023/07/02 11:21:34;;;;;;;6.38;4.90;;;;;;;26.48;38.88;97771.34;4958638;28;20377;-69
2023/07/02 11:24:08;;;;;;;6.60;5.18;;;;;;;26.43;39.43;97782.19;4958203;28;20057;-67
2023/07/02 11:26:40;;;;;;;11.48;5.18;;;;;;;26.19;39.50;97789.81;4957306;28;20065;-72